Time;durP1;ratioP1;P1;durP2;ratioP2;P2;SDS_P1;SDS_P2;PMS_P1;PMS_P2;Temp;Humidity;BMP_temperature;BMP_pressure;BME280_temperature;BME280_humidity;BME280_pressure;Samples;Min_cycle;Max_cycle;Signal;HPM_P1;HPM_P2
2022/10/12 00:01:04;;;;;;;;;;;;;;;10.64;64.75;101929.61;1728909;83;25944;-59
2022/10/12 00:03:34;;;;;;;;;;;;;;;10.60;64.53;101926.28;1728860;82;25515;-59
2022/10/12 00:06:05;;;;;;;;;;;;;;;10.58;64.29;101930.05;1726828;82;25778;-58
2022/10/12 00:08:33;;;;;;;;;;;;;;;10.53;64.54;101927.69;1729114;83;25768;-59
2022/10/12 00:11:00;;;;;;;;;;;;;;;10.49;64.39;101925.66;1728975;82;27473;-59
2022/10/12 00:13:27;;;;;;;;;;;;;;;10.45;64.42;101930.90;1728814;83;25673;-59
2022/10/12 00:15:53;;;;;;;;;;;;;;;10.41;64.52;101936.59;1725031;82;25688;-59
2022/10/12 00:18:20;;;;;;;;;;;;;;;10.37;64.45;101929.23;1729015;82;25794;-60
2022/10/12 00:20:47;;;;;;;;;;;;;;;10.33;64.25;101932.58;1728958;82;25602;-59
2022/10/12 00:23:14;;;;;;;;;;;;;;;10.28;64.59;101932.52;1729305;83;27561;-59
2022/10/12 00:25:41;;;;;;;;;;;;;;;10.23;64.99;101930.15;1675354;83;25773;-59
2022/10/12 00:28:08;;;;;;;;;;;;;;;10.15;64.73;101937.38;1659628;86;25855;-59
2022/10/12 00:30:38;;;;;;;;;;;;;;;10.07;64.70;101938.39;1659981;86;25812;-59
2022/10/12 00:33:04;;;;;;;;;;;;;;;10.02;65.04;101937.86;1663292;84;25734;-59
2022/10/12 00:35:31;;;;;;;;;;;;;;;9.97;65.48;101930.10;1672400;83;27484;-59
2022/10/12 00:37:57;;;;;;;;;;;;;;;9.92;65.16;101931.37;1673439;84;25826;-59
2022/10/12 00:40:24;;;;;;;;;;;;;;;9.90;65.26;101938.20;1672299;83;25659;-58
2022/10/12 00:42:51;;;;;;;;;;;;;;;9.90;65.81;101937.33;1673858;83;25758;-59
2022/10/12 00:45:19;;;;;;;;;;;;;;;9.86;65.90;101934.83;1679411;85;26034;-58
2022/10/12 00:47:51;;;;;;;;;;;;;;;9.84;65.65;101934.56;1666480;86;27492;-59
2022/10/12 00:50:23;;;;;;;;;;;;;;;9.81;65.51;101937.48;1666284;86;25861;-58
2022/10/12 00:53:00;;;;;;;;;;;;;;;9.80;65.68;101934.41;1666923;83;25849;-60
2022/10/12 00:55:29;;;;;;;;;;;;;;;9.77;65.46;101937.28;1666315;86;25842;-59
2022/10/12 00:57:56;;;;;;;;;;;;;;;9.70;65.81;101939.52;1684519;85;25741;-60
2022/10/12 01:00:23;;;;;;;;;;;;;;;9.66;65.68;101940.70;1684783;82;27504;-58
2022/10/12 01:02:51;;;;;;;;;;;;;;;9.62;65.84;101940.04;1664451;86;25861;-59
2022/10/12 01:05:18;;;;;;;;;;;;;;;9.61;65.70;101943.69;1720083;83;25770;-59
2022/10/12 01:07:45;;;;;;;;;;;;;;;9.60;66.09;101939.27;1721389;83;25782;-59
2022/10/12 01:10:11;;;;;;;;;;;;;;;9.59;66.02;101944.27;1718657;83;25768;-60
2022/10/12 01:12:42;;;;;;;;;;;;;;;9.54;65.56;101946.41;1721539;83;28096;-60
2022/10/12 01:15:10;;;;;;;;;;;;;;;9.51;65.79;101942.56;1721473;83;25697;-59
2022/10/12 01:18:02;;;;;;;;;;;;;;;9.48;65.68;101948.13;1721304;83;25805;-59
2022/10/12 01:20:35;;;;;;;;;;;;;;;9.46;66.11;101948.23;1674791;84;26780;-59
2022/10/12 01:23:23;;;;;;;;;;;;;;;9.43;66.00;101942.20;1684080;84;25703;-60
2022/10/12 01:25:56;;;;;;;;;;;;;;;9.35;66.61;101946.26;1684893;83;27970;-59
2022/10/12 01:28:51;;;;;;;;;;;;;;;9.23;66.10;101950.56;1681415;83;25798;-59
2022/10/12 01:31:27;;;;;;;;;;;;;;;9.20;66.43;101948.56;1682675;84;25801;-59
2022/10/12 01:34:06;;;;;;;;;;;;;;;9.16;66.22;101948.39;1682835;84;26492;-60
2022/10/12 01:36:36;;;;;;;;;;;;;;;9.13;66.37;101952.61;1687754;84;26102;-59
2022/10/12 01:39:09;;;;;;;;;;;;;;;9.08;66.29;101949.75;1691645;83;27550;-59
2022/10/12 01:41:45;;;;;;;;;;;;;;;9.07;66.26;101953.39;1683635;83;25841;-60
2022/10/12 01:44:20;;;;;;;;;;;;;;;9.04;67.19;101950.05;1683513;84;25461;-60
2022/10/12 01:46:47;;;;;;;;;;;;;;;8.99;66.42;101951.67;1687838;84;25821;-59
2022/10/12 01:49:17;;;;;;;;;;;;;;;8.93;67.01;101950.70;1698814;83;25715;-59
2022/10/12 01:52:07;;;;;;;;;;;;;;;8.88;66.89;101955.50;1721322;83;27540;-60
2022/10/12 01:54:57;;;;;;;;;;;;;;;8.83;66.79;101958.48;1719980;83;25823;-59
2022/10/12 01:57:36;;;;;;;;;;;;;;;8.82;66.73;101957.23;1716135;83;26239;-59
2022/10/12 02:00:09;;;;;;;;;;;;;;;8.79;66.93;101954.73;1695378;83;25841;-59
2022/10/12 02:02:45;;;;;;;;;;;;;;;8.74;67.36;101955.02;1684111;84;25802;-60
2022/10/12 02:05:33;;;;;;;;;;;;;;;8.72;67.46;101951.56;1688328;84;27734;-59
2022/10/12 02:08:25;;;;;;;;;;;;;;;8.68;67.49;101956.75;1680602;85;27398;-59
2022/10/12 02:10:58;;;;;;;;;;;;;;;8.65;67.46;101960.46;1684255;84;25793;-59
2022/10/12 02:13:27;;;;;;;;;;;;;;;8.64;67.57;101958.77;1682238;83;26523;-60
2022/10/12 02:15:56;;;;;;;;;;;;;;;8.60;67.40;101961.23;1661526;84;25911;-60
2022/10/12 02:18:23;;;;;;;;;;;;;;;8.60;67.61;101962.58;1687848;83;27555;-59
2022/10/12 02:20:52;;;;;;;;;;;;;;;8.62;67.62;101967.38;1684302;83;25913;-59
2022/10/12 02:23:21;;;;;;;;;;;;;;;8.62;67.71;101970.06;1694110;84;25790;-60
2022/10/12 02:25:50;;;;;;;;;;;;;;;8.62;67.64;101967.38;1694503;84;26377;-59
2022/10/12 02:28:20;;;;;;;;;;;;;;;8.58;68.20;101960.46;1694321;84;25729;-60
2022/10/12 02:30:52;;;;;;;;;;;;;;;8.58;67.86;101964.48;1694210;84;28550;-59
2022/10/12 02:33:25;;;;;;;;;;;;;;;8.57;67.79;101966.78;1707472;84;26101;-60
2022/10/12 02:36:00;;;;;;;;;;;;;;;8.54;67.90;101971.02;1692137;84;25782;-60
2022/10/12 02:38:37;;;;;;;;;;;;;;;8.52;67.72;101966.20;1694132;84;26926;-61
2022/10/12 02:41:07;;;;;;;;;;;;;;;8.50;67.87;101966.77;1685183;84;27334;-60
2022/10/12 02:43:40;;;;;;;;;;;;;;;8.51;67.79;101971.19;1679150;85;27723;-59
2022/10/12 02:46:09;;;;;;;;;;;;;;;8.48;67.62;101973.58;1676828;85;25811;-59
2022/10/12 02:48:37;;;;;;;;;;;;;;;8.48;67.78;101979.41;1676936;85;25862;-60
2022/10/12 02:51:05;;;;;;;;;;;;;;;8.46;68.05;101980.36;1679269;84;25790;-60
2022/10/12 02:53:32;;;;;;;;;;;;;;;8.46;68.38;101985.72;1693948;84;25770;-60
2022/10/12 02:56:02;;;;;;;;;;;;;;;8.45;67.99;101981.31;1693951;84;28299;-60
2022/10/12 02:58:28;;;;;;;;;;;;;;;8.41;68.02;101987.80;1693956;84;25726;-61
2022/10/12 03:00:55;;;;;;;;;;;;;;;8.36;67.87;101980.52;1694224;84;25728;-60
2022/10/12 03:03:21;;;;;;;;;;;;;;;8.32;67.85;101982.98;1694630;84;26456;-61
2022/10/12 03:05:48;;;;;;;;;;;;;;;8.21;67.81;101985.43;1694245;84;25787;-59
2022/10/12 03:08:14;;;;;;;;;;;;;;;8.12;68.06;101984.17;1694473;84;28093;-59
2022/10/12 03:10:41;;;;;;;;;;;;;;;8.07;68.15;101983.11;1694197;84;25698;-60
2022/10/12 03:13:07;;;;;;;;;;;;;;;8.09;68.18;101982.55;1694639;84;25788;-59
2022/10/12 03:15:34;;;;;;;;;;;;;;;8.10;68.30;101981.59;1693972;84;25802;-59
2022/10/12 03:18:00;;;;;;;;;;;;;;;8.11;68.22;101981.95;1694399;84;25743;-59
2022/10/12 03:20:27;;;;;;;;;;;;;;;8.08;68.22;101986.17;1694293;84;27611;-59
2022/10/12 03:22:53;;;;;;;;;;;;;;;8.04;68.32;101985.95;1694323;84;25847;-59
2022/10/12 03:25:20;;;;;;;;;;;;;;;8.01;69.79;101991.97;1698022;83;25808;-59
2022/10/12 03:27:46;;;;;;;;;;;;;;;7.88;69.36;101995.84;1716393;83;25881;-59
2022/10/12 03:30:14;;;;;;;;;;;;;;;7.83;69.31;101996.98;1716243;83;25781;-60
2022/10/12 03:32:40;;;;;;;;;;;;;;;7.82;69.37;101991.70;1716440;83;28688;-60
2022/10/12 03:35:09;;;;;;;;;;;;;;;7.78;69.49;101997.71;1716151;83;25753;-60
2022/10/12 03:37:35;;;;;;;;;;;;;;;7.79;69.50;101994.58;1691093;83;25813;-60
2022/10/12 03:40:02;;;;;;;;;;;;;;;7.77;69.37;101996.47;1685625;84;25799;-61
2022/10/12 03:42:29;;;;;;;;;;;;;;;7.72;69.43;101994.05;1694265;84;25751;-60
2022/10/12 03:44:55;;;;;;;;;;;;;;;7.71;69.96;101992.81;1677631;84;27493;-61
2022/10/12 03:47:22;;;;;;;;;;;;;;;7.68;69.95;101997.84;1676761;85;25718;-61
2022/10/12 03:49:48;;;;;;;;;;;;;;;7.64;70.48;102001.66;1676976;85;25825;-60
2022/10/12 03:52:14;;;;;;;;;;;;;;;7.65;70.64;102002.05;1676868;85;25809;-59
2022/10/12 03:54:41;;;;;;;;;;;;;;;7.70;71.09;102001.30;1677273;85;25793;-59
2022/10/12 03:57:07;;;;;;;;;;;;;;;7.77;70.97;102003.16;1679108;85;27705;-60
2022/10/12 03:59:34;;;;;;;;;;;;;;;7.76;70.97;102004.97;1711026;84;25738;-60
2022/10/12 04:02:01;;;;;;;;;;;;;;;7.73;70.55;102003.81;1689574;85;25785;-60
2022/10/12 04:04:28;;;;;;;;;;;;;;;7.74;70.61;102005.55;1680745;85;26960;-61
2022/10/12 04:06:54;;;;;;;;;;;;;;;7.74;71.55;102004.21;1711045;83;25757;-60
2022/10/12 04:09:20;;;;;;;;;;;;;;;7.76;70.86;102006.30;1689814;85;27481;-60
2022/10/12 04:11:47;;;;;;;;;;;;;;;7.83;71.14;102013.06;1689382;85;25906;-60
2022/10/12 04:14:13;;;;;;;;;;;;;;;7.88;70.99;102015.94;1689607;84;25833;-59
2022/10/12 04:16:40;;;;;;;;;;;;;;;7.90;70.72;102009.53;1680769;85;26328;-60
2022/10/12 04:19:11;;;;;;;;;;;;;;;7.89;70.28;102013.16;1711322;84;25958;-59
2022/10/12 04:21:37;;;;;;;;;;;;;;;7.87;70.31;102012.86;1702017;84;27576;-59
2022/10/12 04:24:05;;;;;;;;;;;;;;;7.87;70.13;102015.55;1707414;84;25855;-60
2022/10/12 04:26:32;;;;;;;;;;;;;;;7.88;71.01;102015.48;1707332;84;25752;-60
2022/10/12 04:28:59;;;;;;;;;;;;;;;7.91;70.71;102015.28;1707493;84;25808;-60
2022/10/12 04:31:25;;;;;;;;;;;;;;;8.00;70.95;102021.94;1707634;84;25714;-59
2022/10/12 04:33:55;;;;;;;;;;;;;;;8.02;70.45;102022.72;1707434;83;27524;-60
2022/10/12 04:36:23;;;;;;;;;;;;;;;8.01;70.40;102025.02;1706458;83;25744;-58
2022/10/12 04:38:50;;;;;;;;;;;;;;;8.03;70.40;102027.59;1702248;84;25550;-60
2022/10/12 04:41:16;;;;;;;;;;;;;;;8.05;70.46;102026.55;1691935;84;25861;-59
2022/10/12 04:43:43;;;;;;;;;;;;;;;8.07;70.52;102028.67;1686347;84;25826;-59
2022/10/12 04:46:10;;;;;;;;;;;;;;;8.09;70.20;102032.59;1692994;84;27540;-59
2022/10/12 04:48:37;;;;;;;;;;;;;;;8.10;70.29;102041.91;1692755;84;25692;-60
2022/10/12 04:51:05;;;;;;;;;;;;;;;8.17;70.73;102041.53;1693009;84;25839;-59
2022/10/12 04:53:31;;;;;;;;;;;;;;;8.20;70.56;102044.90;1692986;84;26780;-59
2022/10/12 04:56:01;;;;;;;;;;;;;;;8.23;70.31;102045.19;1692979;84;25816;-60
2022/10/12 04:58:28;;;;;;;;;;;;;;;8.26;70.20;102052.57;1699648;83;27707;-60
2022/10/12 05:00:55;;;;;;;;;;;;;;;8.29;70.21;102054.23;1699735;84;25734;-61
2022/10/12 05:03:22;;;;;;;;;;;;;;;8.32;70.04;102050.50;1699595;84;25753;-59
2022/10/12 05:05:48;;;;;;;;;;;;;;;8.36;70.09;102054.72;1699774;84;26659;-59
2022/10/12 05:08:14;;;;;;;;;;;;;;;8.40;70.28;102059.81;1699589;84;26237;-60
2022/10/12 05:10:41;;;;;;;;;;;;;;;8.45;70.21;102060.42;1699540;84;27528;-60
2022/10/12 05:13:07;;;;;;;;;;;;;;;8.50;70.09;102067.34;1699730;84;25825;-59
2022/10/12 05:15:34;;;;;;;;;;;;;;;8.53;70.06;102070.70;1699870;84;25722;-59
2022/10/12 05:18:01;;;;;;;;;;;;;;;8.54;69.93;102076.46;1699536;84;25853;-60
2022/10/12 05:20:27;;;;;;;;;;;;;;;8.57;69.96;102079.44;1699739;84;25717;-59
2022/10/12 05:22:55;;;;;;;;;;;;;;;8.63;69.93;102079.09;1699562;84;27558;-60
2022/10/12 05:25:22;;;;;;;;;;;;;;;8.71;70.11;102083.52;1699598;84;25830;-60
2022/10/12 05:27:48;;;;;;;;;;;;;;;8.84;69.99;102082.30;1699497;84;26489;-60
2022/10/12 05:30:15;;;;;;;;;;;;;;;8.89;69.86;102084.22;1699560;84;25827;-60
2022/10/12 05:32:43;;;;;;;;;;;;;;;8.97;69.85;102086.45;1699998;84;25799;-60
2022/10/12 05:35:10;;;;;;;;;;;;;;;9.03;69.93;102090.09;1699562;84;28610;-59
2022/10/12 05:37:37;;;;;;;;;;;;;;;9.09;69.88;102084.83;1688865;84;25675;-60
2022/10/12 05:40:05;;;;;;;;;;;;;;;9.16;69.94;102092.03;1689627;84;25754;-60
2022/10/12 05:42:33;;;;;;;;;;;;;;;9.20;69.60;102083.69;1699979;84;25789;-60
2022/10/12 05:45:01;;;;;;;;;;;;;;;9.27;69.80;102095.39;1684947;84;27388;-59
2022/10/12 05:47:27;;;;;;;;;;;;;;;9.31;69.68;102099.62;1685318;85;27622;-60
2022/10/12 05:49:54;;;;;;;;;;;;;;;9.35;70.01;102093.96;1687055;85;25721;-59
2022/10/12 05:52:21;;;;;;;;;;;;;;;9.39;69.79;102095.48;1684880;85;25793;-58
2022/10/12 05:54:48;;;;;;;;;;;;;;;9.47;69.70;102099.50;1687169;85;25825;-59
2022/10/12 05:57:15;;;;;;;;;;;;;;;9.55;69.85;102101.22;1680966;84;25770;-59
2022/10/12 05:59:42;;;;;;;;;;;;;;;9.65;69.85;102105.55;1701441;84;27488;-59
2022/10/12 06:02:14;;;;;;;;;;;;;;;9.77;69.75;102113.31;1687119;85;25838;-58
2022/10/12 06:04:41;;;;;;;;;;;;;;;9.83;69.72;102112.91;1673263;85;25869;-59
2022/10/12 06:07:08;;;;;;;;;;;;;;;9.83;69.48;102116.94;1701772;84;25787;-60
2022/10/12 06:09:37;;;;;;;;;;;;;;;9.86;69.24;102118.95;1687257;85;26559;-60
2022/10/12 06:12:06;;;;;;;;;;;;;;;9.95;69.28;102121.54;1673587;85;28221;-61
2022/10/12 06:14:32;;;;;;;;;;;;;;;10.05;69.49;102123.14;1701220;83;25895;-60
2022/10/12 06:16:59;;;;;;;;;;;;;;;10.08;69.18;102125.64;1687266;85;25709;-60
2022/10/12 06:19:25;;;;;;;;;;;;;;;10.12;69.03;102127.18;1687100;84;25808;-59
2022/10/12 06:21:51;;;;;;;;;;;;;;;10.15;68.90;102128.30;1687406;84;25642;-60
2022/10/12 06:24:18;;;;;;;;;;;;;;;10.22;68.94;102131.96;1687572;84;28368;-60
2022/10/12 06:26:44;;;;;;;;;;;;;;;10.26;68.76;102127.63;1687009;85;25801;-59
2022/10/12 06:29:11;;;;;;;;;;;;;;;10.33;68.96;102135.66;1687120;84;25773;-59
2022/10/12 06:31:38;;;;;;;;;;;;;;;10.37;68.82;102133.66;1687207;85;25812;-60
2022/10/12 06:34:05;;;;;;;;;;;;;;;10.44;68.68;102136.81;1673624;85;25647;-59
2022/10/12 06:36:32;;;;;;;;;;;;;;;10.53;68.44;102130.83;1704426;83;27477;-59
2022/10/12 06:38:58;;;;;;;;;;;;;;;10.60;68.78;102137.52;1711163;84;25794;-59
2022/10/12 06:41:25;;;;;;;;;;;;;;;10.62;68.41;102137.41;1702614;84;25521;-60
2022/10/12 06:43:51;;;;;;;;;;;;;;;10.65;68.21;102139.90;1694967;84;25825;-60
2022/10/12 06:46:18;;;;;;;;;;;;;;;10.68;68.13;102140.17;1702233;84;25759;-59
2022/10/12 06:48:45;;;;;;;;;;;;;;;10.70;67.91;102141.78;1702251;84;27492;-60
2022/10/12 06:51:11;;;;;;;;;;;;;;;10.76;67.83;102134.63;1702122;84;25932;-59
2022/10/12 06:53:38;;;;;;;;;;;;;;;10.84;67.78;102141.34;1702142;84;25709;-60
2022/10/12 06:56:09;;;;;;;;;;;;;;;10.88;67.98;102132.95;1702029;84;25845;-60
2022/10/12 06:58:36;;;;;;;;;;;;;;;10.93;67.80;102138.87;1696449;84;25760;-60
2022/10/12 07:01:05;;;;;;;;;;;;;;;10.96;67.74;102140.48;1694435;84;28834;-58
2022/10/12 07:03:32;;;;;;;;;;;;;;;11.04;67.82;102144.02;1694508;84;25714;-59
2022/10/12 07:06:08;;;;;;;;;;;;;;;11.05;67.77;102144.40;1694243;84;25822;-58
2022/10/12 07:08:34;;;;;;;;;;;;;;;11.10;67.88;102140.89;1694582;83;26494;-59
2022/10/12 07:11:03;;;;;;;;;;;;;;;11.20;67.77;102143.33;1694082;84;25742;-59
2022/10/12 07:13:33;;;;;;;;;;;;;;;11.30;67.43;102146.73;1694735;83;28227;-59
2022/10/12 07:16:00;;;;;;;;;;;;;;;11.40;67.19;102146.47;1693949;84;25806;-58
2022/10/12 07:18:27;;;;;;;;;;;;;;;11.54;66.99;102145.49;1694787;84;25812;-58
2022/10/12 07:20:56;;;;;;;;;;;;;;;11.66;66.77;102140.56;1694298;84;26829;-58
2022/10/12 07:23:22;;;;;;;;;;;;;;;11.84;66.36;102138.39;1694878;84;25962;-58
2022/10/12 07:25:50;;;;;;;;;;;;;;;12.04;66.08;102138.31;1694154;84;27573;-59
2022/10/12 07:28:18;;;;;;;;;;;;;;;12.18;65.56;102134.60;1694625;84;25790;-59
2022/10/12 07:30:45;;;;;;;;;;;;;;;12.42;65.38;102136.44;1694330;84;25815;-59
2022/10/12 07:33:11;;;;;;;;;;;;;;;12.60;64.26;102136.03;1694639;84;26804;-59
2022/10/12 07:35:38;;;;;;;;;;;;;;;12.75;63.93;102138.94;1694490;84;25441;-58
2022/10/12 07:38:05;;;;;;;;;;;;;;;12.96;63.94;102125.62;1681812;84;27534;-60
2022/10/12 07:40:32;;;;;;;;;;;;;;;13.24;62.44;102125.30;1687931;84;25739;-60
2022/10/12 07:42:59;;;;;;;;;;;;;;;13.37;62.48;102125.19;1692774;84;25727;-60
2022/10/12 07:45:27;;;;;;;;;;;;;;;13.50;62.26;102123.75;1681923;85;26421;-59
2022/10/12 07:47:55;;;;;;;;;;;;;;;13.50;61.62;102123.27;1682040;85;25825;-60
2022/10/12 07:50:21;;;;;;;;;;;;;;;13.59;61.70;102123.02;1681678;85;27641;-60
2022/10/12 07:52:48;;;;;;;;;;;;;;;13.69;61.53;102126.70;1681925;85;25797;-60
2022/10/12 07:55:14;;;;;;;;;;;;;;;13.80;60.48;102131.75;1682041;85;25761;-60
2022/10/12 07:57:43;;;;;;;;;;;;;;;13.87;60.44;102126.20;1681888;84;25897;-59
2022/10/12 08:00:11;;;;;;;;;;;;;;;13.96;60.05;102124.61;1681964;85;25868;-60
2022/10/12 08:02:40;;;;;;;;;;;;;;;14.03;59.99;102129.37;1681928;85;27504;-59
2022/10/12 08:05:07;;;;;;;;;;;;;;;14.18;59.84;102124.55;1681862;85;25737;-59
2022/10/12 08:07:34;;;;;;;;;;;;;;;14.22;59.65;102125.15;1682199;84;25797;-61
2022/10/12 08:10:00;;;;;;;;;;;;;;;14.17;59.14;102128.23;1681990;85;25942;-60
2022/10/12 08:12:26;;;;;;;;;;;;;;;14.20;59.36;102129.86;1682015;85;25718;-59
2022/10/12 08:14:53;;;;;;;;;;;;;;;14.21;59.48;102123.42;1681584;85;27884;-60
2022/10/12 08:17:19;;;;;;;;;;;;;;;14.11;59.11;102124.69;1682122;85;25759;-60
2022/10/12 08:19:45;;;;;;;;;;;;;;;14.04;59.31;102126.19;1681905;85;25642;-59
2022/10/12 08:22:12;;;;;;;;;;;;;;;14.05;59.46;102127.91;1682004;85;25792;-60
2022/10/12 08:24:38;;;;;;;;;;;;;;;14.06;59.66;102128.28;1682120;85;25413;-60
2022/10/12 08:27:05;;;;;;;;;;;;;;;14.15;59.61;102126.65;1681928;85;27578;-60
2022/10/12 08:29:31;;;;;;;;;;;;;;;14.38;59.62;102124.27;1681957;85;26016;-59
2022/10/12 08:32:00;;;;;;;;;;;;;;;14.66;58.92;102122.42;1682178;84;25853;-59
2022/10/12 08:34:27;;;;;;;;;;;;;;;14.96;58.71;102120.84;1681730;85;25791;-59
2022/10/12 08:36:54;;;;;;;;;;;;;;;15.28;57.94;102121.23;1687541;84;25824;-60
2022/10/12 08:39:21;;;;;;;;;;;;;;;15.72;57.91;102116.95;1694250;84;27425;-60
2022/10/12 08:42:07;;;;;;;;;;;;;;;16.18;57.01;102120.94;1681925;85;25950;-60
2022/10/12 08:45:00;;;;;;;;;;;;;;;16.50;56.33;102116.26;1692164;84;25799;-60
2022/10/12 08:47:45;;;;;;;;;;;;;;;16.82;54.60;102113.25;1694048;84;25861;-60
2022/10/12 08:50:22;;;;;;;;;;;;;;;17.08;54.65;102116.73;1694305;84;25746;-60
2022/10/12 08:52:51;;;;;;;;;;;;;;;17.35;52.67;102115.09;1694240;84;27543;-59
2022/10/12 08:55:25;;;;;;;;;;;;;;;17.32;52.08;102116.25;1695036;83;26000;-59
2022/10/12 08:57:52;;;;;;;;;;;;;;;17.39;52.44;102115.69;1695263;83;25805;-59
2022/10/12 09:00:18;;;;;;;;;;;;;;;17.60;52.71;102112.73;1699843;84;25834;-58
2022/10/12 09:03:10;;;;;;;;;;;;;;;17.76;52.09;102111.58;1699674;84;25923;-59
2022/10/12 09:05:49;;;;;;;;;;;;;;;17.86;50.27;102116.12;1659524;84;27563;-58
2022/10/12 09:08:28;;;;;;;;;;;;;;;18.68;49.10;102112.92;1699553;84;25731;-59
2022/10/12 09:11:01;;;;;;;;;;;;;;;19.24;48.80;102114.89;1692101;84;25524;-59
2022/10/12 09:13:45;;;;;;;;;;;;;;;19.69;46.10;102108.80;1700168;82;25872;-60
2022/10/12 09:16:18;;;;;;;;;;;;;;;20.12;45.13;102107.97;1713799;83;25879;-60
2022/10/12 09:18:48;;;;;;;;;;;;;;;20.43;45.60;102108.69;1699802;84;27482;-59
2022/10/12 09:21:16;;;;;;;;;;;;;;;20.73;45.06;102105.83;1699746;84;25726;-60
2022/10/12 09:23:44;;;;;;;;;;;;;;;21.53;44.92;102106.02;1699699;83;25731;-59
2022/10/12 09:26:16;;;;;;;;;;;;;;;22.13;45.21;102101.83;1700024;84;25761;-61
2022/10/12 09:28:50;;;;;;;;;;;;;;;22.67;42.66;102106.95;1699658;84;25774;-59
2022/10/12 09:31:49;;;;;;;;;;;;;;;22.90;41.84;102106.09;1699707;84;27534;-59
2022/10/12 09:34:15;;;;;;;;;;;;;;;23.52;41.65;102110.95;1714995;83;25936;-59
2022/10/12 09:36:42;;;;;;;;;;;;;;;24.01;39.33;102102.62;1694224;84;25769;-60
2022/10/12 09:39:17;;;;;;;;;;;;;;;24.23;37.47;102104.34;1685252;85;25746;-59
2022/10/12 09:41:46;;;;;;;;;;;;;;;24.47;38.02;102106.39;1671440;85;25842;-60
2022/10/12 09:44:25;;;;;;;;;;;;;;;25.14;38.84;102102.00;1678718;84;27633;-59
2022/10/12 09:46:59;;;;;;;;;;;;;;;25.80;35.27;102098.45;1671883;83;25729;-59
2022/10/12 09:49:45;;;;;;;;;;;;;;;26.45;36.42;102086.98;1689382;85;25703;-60
2022/10/12 09:52:14;;;;;;;;;;;;;;;27.16;37.75;102091.85;1689794;85;25841;-59
2022/10/12 09:54:46;;;;;;;;;;;;;;;27.38;32.96;102084.69;1690136;85;25765;-59
2022/10/12 09:57:22;;;;;;;;;;;;;;;27.75;34.63;102084.98;1689361;83;28433;-59
2022/10/12 09:59:48;;;;;;;;;;;;;;;28.21;34.90;102077.54;1686309;85;25765;-60
2022/10/12 10:02:19;;;;;;;;;;;;;;;28.52;32.42;102079.95;1686130;84;25715;-60
2022/10/12 10:04:47;;;;;;;;;;;;;;;28.54;30.72;102082.52;1685499;85;25833;-60
2022/10/12 10:07:27;;;;;;;;;;;;;;;28.60;32.21;102077.45;1709400;84;25821;-60
2022/10/12 10:10:17;;;;;;;;;;;;;;;28.92;31.76;102076.02;1682688;84;28515;-60
2022/10/12 10:12:50;;;;;;;;;;;;;;;29.12;29.97;102074.97;1691422;84;25508;-60
2022/10/12 10:15:26;;;;;;;;;;;;;;;29.50;28.29;102073.94;1704711;84;26088;-60
2022/10/12 10:18:01;;;;;;;;;;;;;;;29.50;27.91;102063.68;1688016;83;26598;-59
2022/10/12 10:20:31;;;;;;;;;;;;;;;30.00;29.29;102061.78;1685175;84;25786;-59
2022/10/12 10:22:58;;;;;;;;;;;;;;;30.08;27.13;102070.29;1716943;82;27535;-59
2022/10/12 10:25:26;;;;;;;;;;;;;;;30.37;28.12;102058.86;1707059;82;25908;-59
2022/10/12 10:28:16;;;;;;;;;;;;;;;30.49;27.83;102052.46;1693287;84;25789;-60
2022/10/12 10:30:46;;;;;;;;;;;;;;;30.67;26.75;102052.95;1710889;81;26091;-59
2022/10/12 10:33:16;;;;;;;;;;;;;;;30.56;26.33;102053.25;1681803;84;25802;-60
2022/10/12 10:36:01;;;;;;;;;;;;;;;30.85;24.58;102051.97;1710808;83;27582;-59
2022/10/12 10:38:30;;;;;;;;;;;;;;;30.77;26.42;102051.80;1707973;82;25738;-60
2022/10/12 10:40:58;;;;;;;;;;;;;;;30.76;25.41;102045.95;1694954;84;25938;-60
2022/10/12 10:43:27;;;;;;;;;;;;;;;30.84;25.62;102041.97;1695366;83;25805;-60
2022/10/12 10:45:59;;;;;;;;;;;;;;;31.26;25.25;102045.98;1737621;82;26297;-59
2022/10/12 10:48:32;;;;;;;;;;;;;;;31.54;25.47;102036.00;1722886;82;27596;-60
2022/10/12 10:51:01;;;;;;;;;;;;;;;31.69;24.81;102038.27;1713570;82;27246;-60
2022/10/12 10:53:34;;;;;;;;;;;;;;;32.22;24.87;102030.59;1683731;84;25771;-60
2022/10/12 10:56:10;;;;;;;;;;;;;;;32.37;23.59;102031.96;1705993;82;25949;-61
2022/10/12 10:58:49;;;;;;;;;;;;;;;32.84;24.04;102021.86;1717060;82;25820;-60
2022/10/12 11:01:22;;;;;;;;;;;;;;;33.00;21.64;102021.53;1711702;82;27678;-61
2022/10/12 11:04:01;;;;;;;;;;;;;;;33.00;23.39;102009.00;1712339;82;26533;-61
2022/10/12 11:06:39;;;;;;;;;;;;;;;33.42;22.48;102013.17;1682594;83;25692;-59
2022/10/12 11:09:12;;;;;;;;;;;;;;;33.36;21.70;102016.45;1723686;82;25879;-60
2022/10/12 11:11:40;;;;;;;;;;;;;;;32.73;22.51;102008.84;1709856;82;25790;-60
2022/10/12 11:14:18;;;;;;;;;;;;;;;32.66;22.67;102006.80;1711097;82;27464;-60
2022/10/12 11:16:58;;;;;;;;;;;;;;;32.62;22.69;102007.86;1713035;83;25750;-59
2022/10/12 11:19:29;;;;;;;;;;;;;;;32.38;22.82;102002.50;1713322;82;25888;-60
2022/10/12 11:21:59;;;;;;;;;;;;;;;32.06;21.99;102004.98;1742398;82;25993;-60
2022/10/12 11:24:41;;;;;;;;;;;;;;;31.43;22.37;101999.34;1742839;82;25740;-60
2022/10/12 11:27:32;;;;;;;;;;;;;;;30.78;23.04;102003.50;1739052;82;27531;-59
2022/10/12 11:30:01;;;;;;;;;;;;;;;30.21;23.81;102002.11;1741697;82;26468;-59
2022/10/12 11:32:36;;;;;;;;;;;;;;;29.90;24.21;101995.72;1742644;82;26127;-60
2022/10/12 11:35:05;;;;;;;;;;;;;;;29.80;24.55;101997.70;1741633;82;25772;-60
2022/10/12 11:37:41;;;;;;;;;;;;;;;29.73;24.99;101991.94;1711191;82;25754;-60
2022/10/12 11:40:13;;;;;;;;;;;;;;;29.54;24.95;101993.36;1691057;83;27157;-60
2022/10/12 11:42:41;;;;;;;;;;;;;;;29.41;25.68;101998.55;1699957;83;25700;-59
2022/10/12 11:45:21;;;;;;;;;;;;;;;29.46;25.61;101993.69;1711799;82;25749;-60
2022/10/12 11:47:51;;;;;;;;;;;;;;;29.51;24.93;101998.02;1730618;82;26453;-59
2022/10/12 11:50:36;;;;;;;;;;;;;;;29.33;24.61;101999.73;1740946;82;25462;-60
2022/10/12 11:53:05;;;;;;;;;;;;;;;29.17;25.07;101998.40;1742703;82;28320;-59
2022/10/12 11:55:54;;;;;;;;;;;;;;;28.86;25.48;101999.39;1734268;82;26012;-59
2022/10/12 11:58:24;;;;;;;;;;;;;;;28.67;25.11;101995.19;1712820;83;26563;-60
2022/10/12 12:01:00;;;;;;;;;;;;;;;28.40;25.97;102001.52;1706955;83;25773;-61
2022/10/12 12:03:45;;;;;;;;;;;;;;;28.31;26.34;101995.95;1691955;82;25721;-60
2022/10/12 12:06:41;;;;;;;;;;;;;;;28.00;26.46;101999.89;1700247;83;27388;-59
2022/10/12 12:09:40;;;;;;;;;;;;;;;27.60;27.11;101999.60;1672113;84;27368;-59
2022/10/12 12:12:25;;;;;;;;;;;;;;;27.35;28.29;101998.09;1695616;82;25873;-59
2022/10/12 12:15:00;;;;;;;;;;;;;;;27.59;28.60;101993.75;1703696;82;26476;-59
2022/10/12 12:17:30;;;;;;;;;;;;;;;27.70;28.85;101989.44;1707362;84;25714;-60
2022/10/12 12:19:59;;;;;;;;;;;;;;;27.39;29.22;101994.34;1714147;82;27437;-60
2022/10/12 12:22:31;;;;;;;;;;;;;;;27.46;29.25;101986.90;1736644;82;25724;-60
2022/10/12 12:25:10;;;;;;;;;;;;;;;27.73;29.42;101989.00;1708320;82;25718;-60
2022/10/12 12:27:49;;;;;;;;;;;;;;;28.04;28.92;101991.44;1700292;83;26571;-61
2022/10/12 12:30:23;;;;;;;;;;;;;;;28.38;28.63;101987.89;1710292;82;25777;-60
2022/10/12 12:33:08;;;;;;;;;;;;;;;29.03;28.25;101980.25;1703051;82;27722;-60
2022/10/12 12:35:37;;;;;;;;;;;;;;;29.52;27.54;101981.69;1682147;83;25940;-61
2022/10/12 12:38:34;;;;;;;;;;;;;;;29.61;26.96;101981.66;1693826;82;25806;-59
2022/10/12 12:41:10;;;;;;;;;;;;;;;29.00;26.68;101982.09;1694757;82;26006;-59
2022/10/12 12:43:59;;;;;;;;;;;;;;;29.04;27.18;101984.17;1714299;82;25768;-60
2022/10/12 12:46:43;;;;;;;;;;;;;;;29.05;27.75;101980.33;1699795;84;27714;-59
2022/10/12 12:49:33;;;;;;;;;;;;;;;29.15;27.87;101983.92;1700803;82;25690;-60
2022/10/12 12:51:59;;;;;;;;;;;;;;;29.30;27.31;101985.47;1684687;82;26019;-61
2022/10/12 12:54:26;;;;;;;;;;;;;;;29.13;27.33;101981.95;1713232;82;25960;-59
2022/10/12 12:57:09;;;;;;;;;;;;;;;28.94;27.93;101983.86;1736547;82;25760;-60
2022/10/12 12:59:58;;;;;;;;;;;;;;;29.24;27.65;101978.93;1717997;82;27301;-60